Terminal Aerodrome Forecast
Issued by NWS

Home | Current Version | Previous Version | Graphics & Text | Print | Product List | Glossary On
Versions: 1 2 3 4 5 6 7 8 9 10 11 12 13 14 15 16 17 18 19 20 21
410
FTUS43 KBIS 171133
TAFJMS
TAF
KJMS 171133Z 1712/1812 26005KT P6SM SCT200
     FM172200 20007KT P6SM SKC
     FM180500 22011KT P6SM BKN200=

USA.gov is the U.S. government's official web portal to all federal, state and local government web resources and services.